sensor_id;sensor_type;location;lat;lon;timestamp;temperature;humidity
69418;DHT22;56610;48.872;2.400;2023-04-03T00:01:16;12.30;99.90
69418;DHT22;56610;48.872;2.400;2023-04-03T00:03:42;12.40;99.90
69418;DHT22;56610;48.872;2.400;2023-04-03T00:06:08;12.60;99.90
69418;DHT22;56610;48.872;2.400;2023-04-03T00:08:35;12.80;99.90
69418;DHT22;56610;48.872;2.400;2023-04-03T00:11:02;12.50;99.90
69418;DHT22;56610;48.872;2.400;2023-04-03T00:13:27;12.30;99.90
69418;DHT22;56610;48.872;2.400;2023-04-03T00:15:53;12.10;99.90
69418;DHT22;56610;48.872;2.400;2023-04-03T00:18:19;11.90;99.90
69418;DHT22;56610;48.872;2.400;2023-04-03T00:20:44;11.60;99.90
69418;DHT22;56610;48.872;2.400;2023-04-03T00:23:10;11.50;99.90
69418;DHT22;56610;48.872;2.400;2023-04-03T00:25:36;11.50;99.90
69418;DHT22;56610;48.872;2.400;2023-04-03T00:28:03;11.70;99.90
69418;DHT22;56610;48.872;2.400;2023-04-03T00:30:29;11.90;99.90
69418;DHT22;56610;48.872;2.400;2023-04-03T00:32:54;12.10;99.90
69418;DHT22;56610;48.872;2.400;2023-04-03T00:35:21;12.30;99.90
69418;DHT22;56610;48.872;2.400;2023-04-03T00:37:47;12.40;99.90
69418;DHT22;56610;48.872;2.400;2023-04-03T00:40:14;12.40;99.90
69418;DHT22;56610;48.872;2.400;2023-04-03T00:42:41;12.30;99.90
69418;DHT22;56610;48.872;2.400;2023-04-03T00:47:36;12.50;99.90
69418;DHT22;56610;48.872;2.400;2023-04-03T00:50:03;12.40;99.90
69418;DHT22;56610;48.872;2.400;2023-04-03T00:52:30;12.40;99.90
69418;DHT22;56610;48.872;2.400;2023-04-03T00:54:59;12.20;99.90
69418;DHT22;56610;48.872;2.400;2023-04-03T00:57:27;12.30;99.90
69418;DHT22;56610;48.872;2.400;2023-04-03T00:59:57;12.60;99.90
69418;DHT22;56610;48.872;2.400;2023-04-03T01:02:24;12.80;99.90
69418;DHT22;56610;48.872;2.400;2023-04-03T01:04:51;12.90;99.90
69418;DHT22;56610;48.872;2.400;2023-04-03T01:07:20;12.80;99.90
69418;DHT22;56610;48.872;2.400;2023-04-03T01:09:48;12.70;99.90
69418;DHT22;56610;48.872;2.400;2023-04-03T01:12:29;12.70;99.90
69418;DHT22;56610;48.872;2.400;2023-04-03T01:14:57;12.80;99.90
69418;DHT22;56610;48.872;2.400;2023-04-03T01:25:57;12.50;99.90
69418;DHT22;56610;48.872;2.400;2023-04-03T01:28:30;12.30;99.90
69418;DHT22;56610;48.872;2.400;2023-04-03T01:31:09;12.20;99.90
69418;DHT22;56610;48.872;2.400;2023-04-03T01:33:38;12.20;99.90
69418;DHT22;56610;48.872;2.400;2023-04-03T01:36:04;12.20;99.90
69418;DHT22;56610;48.872;2.400;2023-04-03T01:38:30;12.20;99.90
69418;DHT22;56610;48.872;2.400;2023-04-03T01:40:56;12.30;99.90
69418;DHT22;56610;48.872;2.400;2023-04-03T01:43:22;12.30;99.90
69418;DHT22;56610;48.872;2.400;2023-04-03T01:45:47;12.20;99.90
69418;DHT22;56610;48.872;2.400;2023-04-03T01:48:14;12.40;99.90
69418;DHT22;56610;48.872;2.400;2023-04-03T01:50:40;12.40;99.90
69418;DHT22;56610;48.872;2.400;2023-04-03T01:53:06;12.50;99.90
69418;DHT22;56610;48.872;2.400;2023-04-03T01:55:32;12.80;99.90
69418;DHT22;56610;48.872;2.400;2023-04-03T01:57:57;12.90;99.90
69418;DHT22;56610;48.872;2.400;2023-04-03T02:00:23;13.10;99.90
69418;DHT22;56610;48.872;2.400;2023-04-03T02:02:49;12.90;99.90
69418;DHT22;56610;48.872;2.400;2023-04-03T02:05:15;13.10;99.90
69418;DHT22;56610;48.872;2.400;2023-04-03T02:07:41;13.00;99.90
69418;DHT22;56610;48.872;2.400;2023-04-03T02:10:06;13.00;99.90
69418;DHT22;56610;48.872;2.400;2023-04-03T02:12:32;12.80;99.90
69418;DHT22;56610;48.872;2.400;2023-04-03T02:14:58;12.50;99.90
69418;DHT22;56610;48.872;2.400;2023-04-03T02:17:24;12.30;99.90
69418;DHT22;56610;48.872;2.400;2023-04-03T02:19:49;12.30;99.90
69418;DHT22;56610;48.872;2.400;2023-04-03T02:22:15;12.30;99.90
69418;DHT22;56610;48.872;2.400;2023-04-03T02:24:41;12.40;99.90
69418;DHT22;56610;48.872;2.400;2023-04-03T02:27:07;12.70;99.90
69418;DHT22;56610;48.872;2.400;2023-04-03T02:29:32;12.70;99.90
69418;DHT22;56610;48.872;2.400;2023-04-03T02:31:58;13.00;99.90
69418;DHT22;56610;48.872;2.400;2023-04-03T02:34:24;13.10;99.90
69418;DHT22;56610;48.872;2.400;2023-04-03T02:36:49;13.00;99.90
69418;DHT22;56610;48.872;2.400;2023-04-03T02:39:15;12.70;99.90
69418;DHT22;56610;48.872;2.400;2023-04-03T02:41:41;12.20;99.90
69418;DHT22;56610;48.872;2.400;2023-04-03T02:44:09;12.00;99.90
69418;DHT22;56610;48.872;2.400;2023-04-03T02:46:35;11.60;99.90
69418;DHT22;56610;48.872;2.400;2023-04-03T02:49:01;11.50;99.90
69418;DHT22;56610;48.872;2.400;2023-04-03T02:51:27;11.30;99.90
69418;DHT22;56610;48.872;2.400;2023-04-03T02:53:53;11.40;99.90
69418;DHT22;56610;48.872;2.400;2023-04-03T02:56:18;11.30;99.90
69418;DHT22;56610;48.872;2.400;2023-04-03T02:58:45;11.30;99.90
69418;DHT22;56610;48.872;2.400;2023-04-03T03:01:11;11.40;99.90
69418;DHT22;56610;48.872;2.400;2023-04-03T03:03:37;11.40;99.90
69418;DHT22;56610;48.872;2.400;2023-04-03T03:06:11;11.50;99.90
69418;DHT22;56610;48.872;2.400;2023-04-03T03:08:38;11.60;99.90
69418;DHT22;56610;48.872;2.400;2023-04-03T03:11:04;11.60;99.90
69418;DHT22;56610;48.872;2.400;2023-04-03T03:13:31;11.60;99.90
69418;DHT22;56610;48.872;2.400;2023-04-03T03:15:56;11.70;99.90
69418;DHT22;56610;48.872;2.400;2023-04-03T03:18:22;11.90;99.90
69418;DHT22;56610;48.872;2.400;2023-04-03T03:20:51;11.90;99.90
69418;DHT22;56610;48.872;2.400;2023-04-03T03:23:18;12.00;99.90
69418;DHT22;56610;48.872;2.400;2023-04-03T03:25:43;11.80;99.90
69418;DHT22;56610;48.872;2.400;2023-04-03T03:28:09;11.70;99.90
69418;DHT22;56610;48.872;2.400;2023-04-03T03:30:34;11.60;99.90
69418;DHT22;56610;48.872;2.400;2023-04-03T03:33:00;11.70;99.90
69418;DHT22;56610;48.872;2.400;2023-04-03T03:35:26;11.70;99.90
69418;DHT22;56610;48.872;2.400;2023-04-03T03:37:52;11.80;99.90
69418;DHT22;56610;48.872;2.400;2023-04-03T03:40:18;11.90;99.90
69418;DHT22;56610;48.872;2.400;2023-04-03T03:42:43;11.90;99.90
69418;DHT22;56610;48.872;2.400;2023-04-03T03:45:09;12.00;99.90
69418;DHT22;56610;48.872;2.400;2023-04-03T03:47:35;12.10;99.90
69418;DHT22;56610;48.872;2.400;2023-04-03T03:50:01;12.20;99.90
69418;DHT22;56610;48.872;2.400;2023-04-03T03:52:27;12.00;99.90
69418;DHT22;56610;48.872;2.400;2023-04-03T03:54:52;11.90;99.90
69418;DHT22;56610;48.872;2.400;2023-04-03T03:57:18;12.00;99.90
69418;DHT22;56610;48.872;2.400;2023-04-03T03:59:43;12.00;99.90
69418;DHT22;56610;48.872;2.400;2023-04-03T04:02:10;12.30;99.90
69418;DHT22;56610;48.872;2.400;2023-04-03T04:04:36;12.40;99.90
69418;DHT22;56610;48.872;2.400;2023-04-03T04:07:03;12.50;99.90
69418;DHT22;56610;48.872;2.400;2023-04-03T04:09:28;12.60;99.90
69418;DHT22;56610;48.872;2.400;2023-04-03T04:11:55;12.60;99.90
69418;DHT22;56610;48.872;2.400;2023-04-03T04:14:20;12.50;99.90
69418;DHT22;56610;48.872;2.400;2023-04-03T04:16:46;12.60;99.90
69418;DHT22;56610;48.872;2.400;2023-04-03T04:19:12;12.60;99.90
69418;DHT22;56610;48.872;2.400;2023-04-03T04:21:38;12.60;99.90
69418;DHT22;56610;48.872;2.400;2023-04-03T04:24:05;12.60;99.90
69418;DHT22;56610;48.872;2.400;2023-04-03T04:26:31;12.70;99.90
69418;DHT22;56610;48.872;2.400;2023-04-03T04:28:56;12.70;99.90
69418;DHT22;56610;48.872;2.400;2023-04-03T04:31:22;12.90;99.90
69418;DHT22;56610;48.872;2.400;2023-04-03T04:33:48;13.00;99.90
69418;DHT22;56610;48.872;2.400;2023-04-03T04:36:13;13.00;99.90
69418;DHT22;56610;48.872;2.400;2023-04-03T04:38:40;12.80;99.90
69418;DHT22;56610;48.872;2.400;2023-04-03T04:41:06;12.50;99.90
69418;DHT22;56610;48.872;2.400;2023-04-03T04:43:32;12.00;99.90
69418;DHT22;56610;48.872;2.400;2023-04-03T04:46:08;11.80;99.90
69418;DHT22;56610;48.872;2.400;2023-04-03T04:48:35;11.70;99.90
69418;DHT22;56610;48.872;2.400;2023-04-03T04:51:01;11.70;99.90
69418;DHT22;56610;48.872;2.400;2023-04-03T04:53:27;11.60;99.90
69418;DHT22;56610;48.872;2.400;2023-04-03T04:55:52;11.30;99.90
69418;DHT22;56610;48.872;2.400;2023-04-03T04:58:18;11.10;99.90
69418;DHT22;56610;48.872;2.400;2023-04-03T05:00:44;11.10;99.90
69418;DHT22;56610;48.872;2.400;2023-04-03T05:03:10;11.40;99.90
69418;DHT22;56610;48.872;2.400;2023-04-03T05:05:35;11.50;99.90
69418;DHT22;56610;48.872;2.400;2023-04-03T05:08:01;11.60;99.90
69418;DHT22;56610;48.872;2.400;2023-04-03T05:10:28;11.90;99.90
69418;DHT22;56610;48.872;2.400;2023-04-03T05:12:53;11.90;99.90
69418;DHT22;56610;48.872;2.400;2023-04-03T05:15:19;12.00;99.90
69418;DHT22;56610;48.872;2.400;2023-04-03T05:17:45;12.20;99.90
69418;DHT22;56610;48.872;2.400;2023-04-03T05:20:11;12.40;99.90
69418;DHT22;56610;48.872;2.400;2023-04-03T05:22:37;12.40;99.90
69418;DHT22;56610;48.872;2.400;2023-04-03T05:25:03;12.50;99.90
69418;DHT22;56610;48.872;2.400;2023-04-03T05:27:29;12.30;99.90
69418;DHT22;56610;48.872;2.400;2023-04-03T05:29:55;12.00;99.90
69418;DHT22;56610;48.872;2.400;2023-04-03T05:32:23;12.00;99.90
69418;DHT22;56610;48.872;2.400;2023-04-03T05:34:48;12.10;99.90
69418;DHT22;56610;48.872;2.400;2023-04-03T05:37:14;12.00;99.90
69418;DHT22;56610;48.872;2.400;2023-04-03T05:39:39;11.90;99.90
69418;DHT22;56610;48.872;2.400;2023-04-03T05:42:07;11.60;99.90
69418;DHT22;56610;48.872;2.400;2023-04-03T05:44:33;11.60;99.90
69418;DHT22;56610;48.872;2.400;2023-04-03T05:47:01;11.60;99.90
69418;DHT22;56610;48.872;2.400;2023-04-03T05:49:27;11.70;99.90
69418;DHT22;56610;48.872;2.400;2023-04-03T05:51:52;11.90;99.90
69418;DHT22;56610;48.872;2.400;2023-04-03T05:54:29;12.30;99.90
69418;DHT22;56610;48.872;2.400;2023-04-03T05:56:55;12.40;99.90
69418;DHT22;56610;48.872;2.400;2023-04-03T05:59:21;12.70;99.90
69418;DHT22;56610;48.872;2.400;2023-04-03T06:01:50;12.50;99.90
69418;DHT22;56610;48.872;2.400;2023-04-03T06:04:16;12.60;99.90
69418;DHT22;56610;48.872;2.400;2023-04-03T06:06:54;12.60;99.90
69418;DHT22;56610;48.872;2.400;2023-04-03T06:09:22;12.60;99.90
69418;DHT22;56610;48.872;2.400;2023-04-03T06:11:49;12.50;99.90
69418;DHT22;56610;48.872;2.400;2023-04-03T06:14:15;12.40;99.90
69418;DHT22;56610;48.872;2.400;2023-04-03T06:16:41;12.30;99.90
69418;DHT22;56610;48.872;2.400;2023-04-03T06:19:08;12.20;99.90
69418;DHT22;56610;48.872;2.400;2023-04-03T06:21:37;12.10;99.90
69418;DHT22;56610;48.872;2.400;2023-04-03T06:24:04;12.10;99.90
69418;DHT22;56610;48.872;2.400;2023-04-03T06:26:31;11.90;99.90
69418;DHT22;56610;48.872;2.400;2023-04-03T06:28:57;11.70;99.90
69418;DHT22;56610;48.872;2.400;2023-04-03T06:31:23;11.40;99.90
69418;DHT22;56610;48.872;2.400;2023-04-03T06:33:48;11.50;99.90
69418;DHT22;56610;48.872;2.400;2023-04-03T06:36:14;11.60;99.90
69418;DHT22;56610;48.872;2.400;2023-04-03T06:38:44;11.70;99.90
69418;DHT22;56610;48.872;2.400;2023-04-03T06:41:10;11.80;99.90
69418;DHT22;56610;48.872;2.400;2023-04-03T06:43:36;11.90;99.90
69418;DHT22;56610;48.872;2.400;2023-04-03T06:46:02;11.70;99.90
69418;DHT22;56610;48.872;2.400;2023-04-03T06:48:27;11.60;99.90
69418;DHT22;56610;48.872;2.400;2023-04-03T06:50:53;11.70;99.90
69418;DHT22;56610;48.872;2.400;2023-04-03T06:53:19;11.60;99.90
69418;DHT22;56610;48.872;2.400;2023-04-03T06:55:44;11.60;99.90
69418;DHT22;56610;48.872;2.400;2023-04-03T06:58:10;11.80;99.90
69418;DHT22;56610;48.872;2.400;2023-04-03T07:00:36;11.70;99.90
69418;DHT22;56610;48.872;2.400;2023-04-03T07:03:01;11.60;99.90
69418;DHT22;56610;48.872;2.400;2023-04-03T07:05:27;11.60;99.90
69418;DHT22;56610;48.872;2.400;2023-04-03T07:07:53;11.50;99.90
69418;DHT22;56610;48.872;2.400;2023-04-03T07:10:19;11.70;99.90
69418;DHT22;56610;48.872;2.400;2023-04-03T07:12:45;11.70;99.90
69418;DHT22;56610;48.872;2.400;2023-04-03T07:15:11;11.90;99.90
69418;DHT22;56610;48.872;2.400;2023-04-03T07:17:38;11.90;99.90
69418;DHT22;56610;48.872;2.400;2023-04-03T07:20:04;11.90;99.90
69418;DHT22;56610;48.872;2.400;2023-04-03T07:22:30;12.20;99.90
69418;DHT22;56610;48.872;2.400;2023-04-03T07:24:56;12.10;99.90
69418;DHT22;56610;48.872;2.400;2023-04-03T07:27:22;11.80;99.90
69418;DHT22;56610;48.872;2.400;2023-04-03T07:29:47;11.80;99.90
69418;DHT22;56610;48.872;2.400;2023-04-03T07:32:16;11.60;99.90
69418;DHT22;56610;48.872;2.400;2023-04-03T07:34:41;11.70;99.90
69418;DHT22;56610;48.872;2.400;2023-04-03T07:37:07;11.60;99.90
69418;DHT22;56610;48.872;2.400;2023-04-03T07:39:34;11.40;99.90
69418;DHT22;56610;48.872;2.400;2023-04-03T07:42:00;11.20;99.90
69418;DHT22;56610;48.872;2.400;2023-04-03T07:44:26;11.10;99.90
69418;DHT22;56610;48.872;2.400;2023-04-03T07:46:51;11.10;99.90
69418;DHT22;56610;48.872;2.400;2023-04-03T07:49:17;11.00;99.90
69418;DHT22;56610;48.872;2.400;2023-04-03T07:51:44;11.10;99.90
69418;DHT22;56610;48.872;2.400;2023-04-03T07:54:10;11.10;99.90
69418;DHT22;56610;48.872;2.400;2023-04-03T07:56:35;11.20;99.90
69418;DHT22;56610;48.872;2.400;2023-04-03T07:59:01;11.60;99.90
69418;DHT22;56610;48.872;2.400;2023-04-03T08:01:26;11.80;99.90
69418;DHT22;56610;48.872;2.400;2023-04-03T08:03:52;11.80;99.90
69418;DHT22;56610;48.872;2.400;2023-04-03T08:06:18;12.10;99.90
69418;DHT22;56610;48.872;2.400;2023-04-03T08:08:44;12.50;99.90
69418;DHT22;56610;48.872;2.400;2023-04-03T08:11:10;12.40;99.90
69418;DHT22;56610;48.872;2.400;2023-04-03T08:13:37;12.20;99.90
69418;DHT22;56610;48.872;2.400;2023-04-03T08:16:10;12.00;99.90
69418;DHT22;56610;48.872;2.400;2023-04-03T08:18:37;11.90;99.90
69418;DHT22;56610;48.872;2.400;2023-04-03T08:21:11;11.90;99.90
69418;DHT22;56610;48.872;2.400;2023-04-03T08:23:38;12.10;99.90
69418;DHT22;56610;48.872;2.400;2023-04-03T08:26:08;12.10;99.90
69418;DHT22;56610;48.872;2.400;2023-04-03T08:28:34;12.00;99.90
69418;DHT22;56610;48.872;2.400;2023-04-03T08:31:03;12.00;99.90
69418;DHT22;56610;48.872;2.400;2023-04-03T08:33:31;12.20;99.90
69418;DHT22;56610;48.872;2.400;2023-04-03T08:35:57;12.40;99.90
69418;DHT22;56610;48.872;2.400;2023-04-03T08:38:23;12.40;99.90
69418;DHT22;56610;48.872;2.400;2023-04-03T08:41:04;12.40;99.90
69418;DHT22;56610;48.872;2.400;2023-04-03T08:43:58;12.40;99.90
69418;DHT22;56610;48.872;2.400;2023-04-03T08:46:40;12.60;99.90
69418;DHT22;56610;48.872;2.400;2023-04-03T08:49:18;12.70;99.90
69418;DHT22;56610;48.872;2.400;2023-04-03T08:51:49;13.00;99.90
69418;DHT22;56610;48.872;2.400;2023-04-03T08:54:28;13.20;99.90
69418;DHT22;56610;48.872;2.400;2023-04-03T08:56:55;12.80;99.90
69418;DHT22;56610;48.872;2.400;2023-04-03T08:59:27;12.60;99.90
69418;DHT22;56610;48.872;2.400;2023-04-03T09:01:54;12.40;99.90
69418;DHT22;56610;48.872;2.400;2023-04-03T09:04:21;12.30;99.90
69418;DHT22;56610;48.872;2.400;2023-04-03T09:06:55;12.00;99.90
69418;DHT22;56610;48.872;2.400;2023-04-03T09:09:31;12.10;99.90
69418;DHT22;56610;48.872;2.400;2023-04-03T09:12:32;12.00;99.90
69418;DHT22;56610;48.872;2.400;2023-04-03T09:15:19;12.40;99.90
69418;DHT22;56610;48.872;2.400;2023-04-03T09:23:24;12.30;99.90
69418;DHT22;56610;48.872;2.400;2023-04-03T09:26:02;11.90;99.90
69418;DHT22;56610;48.872;2.400;2023-04-03T09:28:38;11.80;99.90
69418;DHT22;56610;48.872;2.400;2023-04-03T09:31:16;12.00;99.90
69418;DHT22;56610;48.872;2.400;2023-04-03T09:33:44;12.00;99.90
69418;DHT22;56610;48.872;2.400;2023-04-03T09:36:10;12.10;99.90
69418;DHT22;56610;48.872;2.400;2023-04-03T09:38:36;12.10;99.90
69418;DHT22;56610;48.872;2.400;2023-04-03T09:41:17;11.90;99.90
69418;DHT22;56610;48.872;2.400;2023-04-03T09:43:53;12.10;99.90
69418;DHT22;56610;48.872;2.400;2023-04-03T09:46:31;12.30;99.90
69418;DHT22;56610;48.872;2.400;2023-04-03T09:49:03;12.40;99.90
69418;DHT22;56610;48.872;2.400;2023-04-03T09:51:30;12.40;99.90
69418;DHT22;56610;48.872;2.400;2023-04-03T09:53:57;12.50;99.90
69418;DHT22;56610;48.872;2.400;2023-04-03T09:56:26;12.50;99.90
69418;DHT22;56610;48.872;2.400;2023-04-03T09:59:08;12.40;99.90
69418;DHT22;56610;48.872;2.400;2023-04-03T10:01:40;12.50;99.90
69418;DHT22;56610;48.872;2.400;2023-04-03T10:04:18;12.70;99.90
69418;DHT22;56610;48.872;2.400;2023-04-03T10:06:48;12.70;99.90
69418;DHT22;56610;48.872;2.400;2023-04-03T10:09:31;12.80;99.90
69418;DHT22;56610;48.872;2.400;2023-04-03T10:14:31;12.80;99.90
69418;DHT22;56610;48.872;2.400;2023-04-03T10:17:18;13.00;99.90
69418;DHT22;56610;48.872;2.400;2023-04-03T10:22:59;13.30;99.90
69418;DHT22;56610;48.872;2.400;2023-04-03T10:28:04;13.00;99.30
69418;DHT22;56610;48.872;2.400;2023-04-03T10:30:36;13.10;99.50
69418;DHT22;56610;48.872;2.400;2023-04-03T10:36:12;13.10;99.00
69418;DHT22;56610;48.872;2.400;2023-04-03T10:44:15;12.90;99.30
69418;DHT22;56610;48.872;2.400;2023-04-03T10:46:44;12.70;98.80
69418;DHT22;56610;48.872;2.400;2023-04-03T10:58:04;13.00;98.20
69418;DHT22;56610;48.872;2.400;2023-04-03T11:00:33;13.20;98.40
69418;DHT22;56610;48.872;2.400;2023-04-03T11:03:05;13.50;98.10
69418;DHT22;56610;48.872;2.400;2023-04-03T11:05:47;13.90;97.40
69418;DHT22;56610;48.872;2.400;2023-04-03T11:10:57;14.30;97.00
69418;DHT22;56610;48.872;2.400;2023-04-03T11:13:26;14.50;97.00
69418;DHT22;56610;48.872;2.400;2023-04-03T11:15:54;14.40;96.90
69418;DHT22;56610;48.872;2.400;2023-04-03T11:18:48;14.60;96.90
69418;DHT22;56610;48.872;2.400;2023-04-03T11:21:46;14.50;96.20
69418;DHT22;56610;48.872;2.400;2023-04-03T11:24:21;14.60;96.20
69418;DHT22;56610;48.872;2.400;2023-04-03T11:27:17;14.80;96.30
69418;DHT22;56610;48.872;2.400;2023-04-03T11:29:46;15.00;96.00
69418;DHT22;56610;48.872;2.400;2023-04-03T11:35:02;14.80;95.80
69418;DHT22;56610;48.872;2.400;2023-04-03T11:37:34;14.90;95.80
69418;DHT22;56610;48.872;2.400;2023-04-03T11:40:07;15.10;95.10
69418;DHT22;56610;48.872;2.400;2023-04-03T11:42:37;15.10;94.80
69418;DHT22;56610;48.872;2.400;2023-04-03T11:45:24;15.20;95.30
69418;DHT22;56610;48.872;2.400;2023-04-03T11:47:52;15.20;95.00
69418;DHT22;56610;48.872;2.400;2023-04-03T12:21:15;17.50;92.00
69418;DHT22;56610;48.872;2.400;2023-04-03T12:27:00;18.00;91.80
69418;DHT22;56610;48.872;2.400;2023-04-03T12:29:27;18.00;91.00
69418;DHT22;56610;48.872;2.400;2023-04-03T12:40:51;18.50;90.20
69418;DHT22;56610;48.872;2.400;2023-04-03T12:48:46;18.80;88.30
69418;DHT22;56610;48.872;2.400;2023-04-03T12:51:42;18.90;88.70
69418;DHT22;56610;48.872;2.400;2023-04-03T12:54:35;18.90;87.80
69418;DHT22;56610;48.872;2.400;2023-04-03T12:57:12;19.40;86.10
69418;DHT22;56610;48.872;2.400;2023-04-03T12:59:41;19.80;85.90
69418;DHT22;56610;48.872;2.400;2023-04-03T13:04:51;20.30;84.40
69418;DHT22;56610;48.872;2.400;2023-04-03T13:12:44;20.40;82.00
69418;DHT22;56610;48.872;2.400;2023-04-03T13:15:28;20.30;82.20
69418;DHT22;56610;48.872;2.400;2023-04-03T13:17:55;20.60;82.90
69418;DHT22;56610;48.872;2.400;2023-04-03T13:20:26;20.30;81.80
69418;DHT22;56610;48.872;2.400;2023-04-03T13:23:06;20.30;82.90
69418;DHT22;56610;48.872;2.400;2023-04-03T13:25:36;20.20;82.90
69418;DHT22;56610;48.872;2.400;2023-04-03T13:28:05;20.30;81.80
69418;DHT22;56610;48.872;2.400;2023-04-03T13:30:38;20.20;80.50
69418;DHT22;56610;48.872;2.400;2023-04-03T13:33:06;20.20;80.60
69418;DHT22;56610;48.872;2.400;2023-04-03T13:35:43;20.20;81.10
69418;DHT22;56610;48.872;2.400;2023-04-03T13:40:53;20.00;82.30
69418;DHT22;56610;48.872;2.400;2023-04-03T13:43:37;20.10;82.00
69418;DHT22;56610;48.872;2.400;2023-04-03T13:46:25;20.30;80.80
69418;DHT22;56610;48.872;2.400;2023-04-03T13:48:54;20.00;80.80
69418;DHT22;56610;48.872;2.400;2023-04-03T13:51:28;20.10;81.60
69418;DHT22;56610;48.872;2.400;2023-04-03T13:53:59;20.00;82.10
69418;DHT22;56610;48.872;2.400;2023-04-03T13:56:34;20.30;80.00
69418;DHT22;56610;48.872;2.400;2023-04-03T14:06:40;20.70;79.40
69418;DHT22;56610;48.872;2.400;2023-04-03T14:09:05;20.70;78.30
69418;DHT22;56610;48.872;2.400;2023-04-03T14:11:34;20.40;78.60
69418;DHT22;56610;48.872;2.400;2023-04-03T14:14:11;20.20;79.60
69418;DHT22;56610;48.872;2.400;2023-04-03T14:16:40;20.20;80.00
69418;DHT22;56610;48.872;2.400;2023-04-03T14:19:07;20.50;79.90
69418;DHT22;56610;48.872;2.400;2023-04-03T14:21:35;20.50;79.00
69418;DHT22;56610;48.872;2.400;2023-04-03T14:24:01;20.70;79.20
69418;DHT22;56610;48.872;2.400;2023-04-03T14:26:28;21.00;78.20
69418;DHT22;56610;48.872;2.400;2023-04-03T14:28:55;21.00;78.70
69418;DHT22;56610;48.872;2.400;2023-04-03T14:31:22;20.90;78.50
69418;DHT22;56610;48.872;2.400;2023-04-03T14:33:48;20.60;77.20
69418;DHT22;56610;48.872;2.400;2023-04-03T14:36:22;20.50;78.50
69418;DHT22;56610;48.872;2.400;2023-04-03T14:38:50;20.30;77.70
69418;DHT22;56610;48.872;2.400;2023-04-03T14:41:19;20.50;78.20
69418;DHT22;56610;48.872;2.400;2023-04-03T14:43:46;20.40;78.20
69418;DHT22;56610;48.872;2.400;2023-04-03T14:46:18;20.60;78.10
69418;DHT22;56610;48.872;2.400;2023-04-03T14:48:45;21.00;77.70
69418;DHT22;56610;48.872;2.400;2023-04-03T14:51:11;20.90;77.90
69418;DHT22;56610;48.872;2.400;2023-04-03T14:53:38;20.70;78.70
69418;DHT22;56610;48.872;2.400;2023-04-03T14:56:21;20.90;76.70
69418;DHT22;56610;48.872;2.400;2023-04-03T14:58:48;20.80;75.90
69418;DHT22;56610;48.872;2.400;2023-04-03T15:01:17;20.60;76.60
69418;DHT22;56610;48.872;2.400;2023-04-03T15:03:45;20.60;77.00
69418;DHT22;56610;48.872;2.400;2023-04-03T15:06:13;20.60;76.60
69418;DHT22;56610;48.872;2.400;2023-04-03T15:08:40;20.50;75.80
69418;DHT22;56610;48.872;2.400;2023-04-03T15:11:07;20.50;77.40
69418;DHT22;56610;48.872;2.400;2023-04-03T15:13:32;20.60;76.40
69418;DHT22;56610;48.872;2.400;2023-04-03T15:15:58;20.50;75.70
69418;DHT22;56610;48.872;2.400;2023-04-03T15:18:25;20.60;76.40
69418;DHT22;56610;48.872;2.400;2023-04-03T15:20:53;20.40;76.90
69418;DHT22;56610;48.872;2.400;2023-04-03T15:23:19;20.60;77.20
69418;DHT22;56610;48.872;2.400;2023-04-03T15:25:46;20.60;76.40
69418;DHT22;56610;48.872;2.400;2023-04-03T15:31:02;20.40;75.70
69418;DHT22;56610;48.872;2.400;2023-04-03T15:33:28;20.20;76.60
69418;DHT22;56610;48.872;2.400;2023-04-03T15:35:54;20.00;77.20
69418;DHT22;56610;48.872;2.400;2023-04-03T15:38:20;19.90;77.90
69418;DHT22;56610;48.872;2.400;2023-04-03T15:40:45;20.10;77.40
69418;DHT22;56610;48.872;2.400;2023-04-03T15:43:13;20.10;77.60
69418;DHT22;56610;48.872;2.400;2023-04-03T15:45:39;20.30;76.80
69418;DHT22;56610;48.872;2.400;2023-04-03T15:48:05;20.10;76.50
69418;DHT22;56610;48.872;2.400;2023-04-03T15:50:33;19.90;76.70
69418;DHT22;56610;48.872;2.400;2023-04-03T15:52:59;19.80;76.70
69418;DHT22;56610;48.872;2.400;2023-04-03T15:55:28;19.90;76.40
69418;DHT22;56610;48.872;2.400;2023-04-03T15:57:53;19.60;76.30
69418;DHT22;56610;48.872;2.400;2023-04-03T16:00:20;19.30;77.90
69418;DHT22;56610;48.872;2.400;2023-04-03T16:02:46;19.00;78.10
69418;DHT22;56610;48.872;2.400;2023-04-03T16:05:13;19.00;83.90
69418;DHT22;56610;48.872;2.400;2023-04-03T16:07:40;18.90;81.60
69418;DHT22;56610;48.872;2.400;2023-04-03T16:10:11;18.70;81.00
69418;DHT22;56610;48.872;2.400;2023-04-03T16:12:37;18.40;80.30
69418;DHT22;56610;48.872;2.400;2023-04-03T16:15:04;18.20;81.00
69418;DHT22;56610;48.872;2.400;2023-04-03T16:17:31;17.90;80.80
69418;DHT22;56610;48.872;2.400;2023-04-03T16:19:57;17.70;80.50
69418;DHT22;56610;48.872;2.400;2023-04-03T16:22:24;17.30;80.80
69418;DHT22;56610;48.872;2.400;2023-04-03T16:24:50;17.10;81.60
69418;DHT22;56610;48.872;2.400;2023-04-03T16:27:16;17.00;83.00
69418;DHT22;56610;48.872;2.400;2023-04-03T16:29:42;16.80;83.00
69418;DHT22;56610;48.872;2.400;2023-04-03T16:32:08;16.70;83.30
69418;DHT22;56610;48.872;2.400;2023-04-03T16:34:35;16.60;83.60
69418;DHT22;56610;48.872;2.400;2023-04-03T16:37:01;16.50;84.10
69418;DHT22;56610;48.872;2.400;2023-04-03T16:39:27;16.30;84.60
69418;DHT22;56610;48.872;2.400;2023-04-03T16:41:53;16.30;84.50
69418;DHT22;56610;48.872;2.400;2023-04-03T16:44:18;16.20;85.00
69418;DHT22;56610;48.872;2.400;2023-04-03T16:46:44;16.10;85.50
69418;DHT22;56610;48.872;2.400;2023-04-03T16:49:10;16.20;85.50
69418;DHT22;56610;48.872;2.400;2023-04-03T16:51:35;16.20;85.50
69418;DHT22;56610;48.872;2.400;2023-04-03T16:54:01;16.00;85.50
69418;DHT22;56610;48.872;2.400;2023-04-03T16:56:27;15.80;86.40
69418;DHT22;56610;48.872;2.400;2023-04-03T16:58:53;15.70;86.80
69418;DHT22;56610;48.872;2.400;2023-04-03T17:01:21;15.70;87.20
69418;DHT22;56610;48.872;2.400;2023-04-03T17:03:46;15.60;86.70
69418;DHT22;56610;48.872;2.400;2023-04-03T17:06:17;15.50;87.00
69418;DHT22;56610;48.872;2.400;2023-04-03T17:08:43;15.50;87.20
69418;DHT22;56610;48.872;2.400;2023-04-03T17:11:10;15.60;87.10
69418;DHT22;56610;48.872;2.400;2023-04-03T17:13:35;15.50;87.00
69418;DHT22;56610;48.872;2.400;2023-04-03T17:16:02;15.60;87.60
69418;DHT22;56610;48.872;2.400;2023-04-03T17:18:30;15.50;87.30
69418;DHT22;56610;48.872;2.400;2023-04-03T17:20:56;15.60;87.30
69418;DHT22;56610;48.872;2.400;2023-04-03T17:23:23;15.40;87.50
69418;DHT22;56610;48.872;2.400;2023-04-03T17:25:49;15.70;87.60
69418;DHT22;56610;48.872;2.400;2023-04-03T17:28:15;15.70;87.30
69418;DHT22;56610;48.872;2.400;2023-04-03T17:30:40;15.80;87.20
69418;DHT22;56610;48.872;2.400;2023-04-03T17:33:06;15.70;87.40
69418;DHT22;56610;48.872;2.400;2023-04-03T17:35:31;15.80;87.10